Time;durP1;ratioP1;P1;durP2;ratioP2;P2;SDS_P1;SDS_P2;PMS_P1;PMS_P2;Temp;Humidity;BMP_temperature;BMP_pressure;BME280_temperature;BME280_humidity;BME280_pressure;Samples;Min_cycle;Max_cycle;Signal;HPM_P1;HPM_P2
2021/11/28 00:02:19;;;;;;;13.40;7.05;;;;;;;10.54;53.05;92570.38;4999750;28;20018;-74
2021/11/28 00:04:47;;;;;;;12.35;6.70;;;;;;;10.45;52.68;92540.53;4997742;28;20076;-74
2021/11/28 00:13:12;;;;;;;10.98;6.88;;;;;;;9.29;55.46;92533.63;5009250;28;20286;-76
2021/11/28 00:15:17;;;;;;;14.15;7.38;;;;;;;9.73;55.19;92558.38;4998909;28;20038;-75
2021/11/28 00:17:43;;;;;;;14.60;7.07;;;;;;;10.17;53.51;92548.53;5005627;28;20051;-75
2021/11/28 00:20:14;;;;;;;18.42;8.48;;;;;;;10.31;53.45;92549.69;5008257;28;20105;-77
2021/11/28 00:22:41;;;;;;;16.33;8.07;;;;;;;10.32;52.79;92527.28;5004774;28;20041;-76
2021/11/28 00:25:09;;;;;;;14.30;9.55;;;;;;;10.58;52.45;92542.00;5011652;28;20030;-76
2021/11/28 00:27:35;;;;;;;12.60;6.55;;;;;;;10.63;52.07;92547.84;5007105;28;20046;-75
2021/11/28 00:30:02;;;;;;;8.63;6.20;;;;;;;10.71;51.62;92538.13;5007412;28;20037;-75
2021/11/28 00:32:27;;;;;;;11.00;6.20;;;;;;;10.55;51.61;92518.75;5005672;28;20166;-74
2021/11/28 00:34:53;;;;;;;11.15;4.88;;;;;;;10.70;51.79;92539.25;5007259;28;20033;-74
2021/11/28 00:37:18;;;;;;;11.50;6.88;;;;;;;10.57;52.16;92548.41;5003849;28;20105;-75
2021/11/28 00:39:47;;;;;;;6.95;4.60;;;;;;;10.49;52.38;92526.22;5006776;28;20033;-74
2021/11/28 00:42:13;;;;;;;7.05;5.25;;;;;;;10.44;52.46;92533.69;5007462;28;20140;-75
2021/11/28 00:44:38;;;;;;;8.25;5.90;;;;;;;10.43;52.47;92548.84;5006648;28;20056;-75
2021/11/28 00:47:04;;;;;;;10.40;5.90;;;;;;;10.59;51.80;92551.53;5004290;28;20124;-75
2021/11/28 00:49:29;;;;;;;14.13;7.53;;;;;;;10.64;51.75;92553.91;5007023;28;20046;-75
2021/11/28 00:51:58;;;;;;;15.30;7.55;;;;;;;10.61;51.44;92543.97;5007173;28;20034;-74
2021/11/28 00:54:26;;;;;;;10.15;6.15;;;;;;;10.43;52.16;92532.13;5005762;28;20030;-75
2021/11/28 00:56:52;;;;;;;10.85;6.18;;;;;;;10.51;51.95;92547.94;5002958;28;20532;-74
2021/11/28 00:59:17;;;;;;;9.15;5.45;;;;;;;10.36;52.33;92546.03;5003899;28;20288;-74
2021/11/28 01:01:43;;;;;;;8.43;5.25;;;;;;;10.41;52.54;92539.69;5000026;28;20456;-75
2021/11/28 01:04:09;;;;;;;9.15;5.55;;;;;;;10.04;53.25;92547.81;5000800;28;20030;-74
2021/11/28 01:06:36;;;;;;;10.80;5.72;;;;;;;9.51;54.68;92538.41;5005675;28;20038;-75
2021/11/28 01:09:05;;;;;;;9.05;5.90;;;;;;;10.02;53.17;92531.47;4999652;28;20056;-75
2021/11/28 01:11:30;;;;;;;8.60;4.68;;;;;;;10.07;53.08;92509.19;5003391;28;20251;-74
2021/11/28 01:13:56;;;;;;;6.68;4.75;;;;;;;10.19;52.47;92496.59;5004672;28;20094;-75
2021/11/28 01:16:22;;;;;;;5.43;3.92;;;;;;;10.46;52.03;92520.81;5005289;28;20129;-75
2021/11/28 01:18:49;;;;;;;8.63;4.78;;;;;;;10.36;52.56;92529.28;5000161;28;20619;-75
2021/11/28 01:21:16;;;;;;;11.88;6.63;;;;;;;10.00;52.76;92507.13;5002310;28;20049;-74
2021/11/28 01:23:41;;;;;;;10.23;5.70;;;;;;;10.13;52.71;92505.16;5006381;28;20022;-74
2021/11/28 01:26:07;;;;;;;11.18;6.03;;;;;;;10.24;52.30;92520.25;5004032;28;20515;-75
2021/11/28 01:28:32;;;;;;;7.35;5.22;;;;;;;10.17;52.09;92490.84;5001392;28;20035;-75
2021/11/28 01:30:58;;;;;;;8.07;5.00;;;;;;;10.39;51.91;92515.31;5002462;28;20069;-75
2021/11/28 01:33:23;;;;;;;8.80;4.65;;;;;;;10.40;51.84;92507.03;5003921;28;20057;-75
2021/11/28 01:35:49;;;;;;;6.53;4.32;;;;;;;10.52;51.62;92522.09;5001136;28;20045;-75
2021/11/28 01:38:18;;;;;;;5.07;4.18;;;;;;;10.52;51.00;92514.88;5005542;28;20026;-74
2021/11/28 01:40:45;;;;;;;7.28;4.03;;;;;;;9.95;51.79;92480.81;5000790;28;20042;-75
2021/11/28 01:43:15;;;;;;;13.20;5.40;;;;;;;10.01;52.05;92524.59;5004520;28;20053;-75
2021/11/28 01:45:44;;;;;;;6.28;3.88;;;;;;;10.01;52.26;92543.19;5005593;28;20034;-75
2021/11/28 01:48:12;;;;;;;7.18;4.40;;;;;;;9.96;52.57;92534.69;5007191;28;20102;-75
2021/11/28 01:50:41;;;;;;;9.15;4.97;;;;;;;9.72;53.32;92530.25;5007743;28;20267;-75
2021/11/28 01:53:11;;;;;;;8.10;4.70;;;;;;;9.79;52.88;92509.97;5000437;28;20096;-75
2021/11/28 01:55:37;;;;;;;7.20;4.35;;;;;;;10.06;52.12;92524.34;5001722;28;20049;-75
2021/11/28 01:58:05;;;;;;;7.85;4.32;;;;;;;10.25;51.63;92527.13;5000680;28;20034;-74
2021/11/28 02:00:38;;;;;;;9.57;4.43;;;;;;;10.38;51.57;92543.00;5003350;28;20076;-75
2021/11/28 02:03:03;;;;;;;6.28;3.90;;;;;;;10.51;51.23;92544.50;5001293;28;20041;-74
2021/11/28 02:05:30;;;;;;;9.15;4.00;;;;;;;10.38;51.12;92519.09;5001938;28;20030;-75
2021/11/28 02:07:57;;;;;;;8.00;3.33;;;;;;;10.59;51.17;92530.25;4999989;28;20030;-75
2021/11/28 02:10:23;;;;;;;5.35;3.67;;;;;;;10.29;51.16;92548.47;5004133;28;20064;-75
2021/11/28 02:12:49;;;;;;;6.43;3.45;;;;;;;9.94;52.43;92539.56;5001772;28;20026;-75
2021/11/28 02:15:16;;;;;;;7.38;4.45;;;;;;;8.36;56.12;92518.63;5018646;28;20166;-74
2021/11/28 02:17:44;;;;;;;6.43;3.83;;;;;;;8.94;55.77;92535.94;5003594;28;20563;-74
2021/11/28 02:20:10;;;;;;;8.70;3.85;;;;;;;9.22;54.51;92518.25;5001427;28;20574;-74
2021/11/28 02:22:38;;;;;;;4.53;3.35;;;;;;;9.51;54.20;92525.13;5002054;28;20042;-74
2021/11/28 02:25:06;;;;;;;4.68;3.10;;;;;;;9.70;53.33;92516.53;5001689;28;20034;-75
2021/11/28 02:27:31;;;;;;;5.43;3.20;;;;;;;9.75;53.10;92529.56;5003576;28;20681;-75
2021/11/28 02:29:57;;;;;;;6.03;3.05;;;;;;;9.68;52.52;92473.66;5005643;28;20037;-75
2021/11/28 02:32:22;;;;;;;7.15;3.97;;;;;;;9.67;53.34;92490.69;5005924;28;20034;-75
2021/11/28 02:34:47;;;;;;;5.40;3.38;;;;;;;10.05;52.23;92501.56;5003611;28;20043;-75
2021/11/28 02:37:13;;;;;;;8.02;3.85;;;;;;;9.97;52.19;92496.41;5005428;28;20112;-75
2021/11/28 02:39:38;;;;;;;8.68;4.10;;;;;;;9.16;53.78;92461.22;5001682;28;20042;-75
2021/11/28 02:42:04;;;;;;;8.23;4.25;;;;;;;9.34;53.40;92451.88;5005697;28;20026;-75
2021/11/28 02:44:31;;;;;;;6.35;3.58;;;;;;;9.48;53.60;92461.34;5001891;28;20022;-75
2021/11/28 02:46:57;;;;;;;5.45;3.88;;;;;;;9.64;53.08;92470.88;5005364;28;20084;-74
2021/11/28 02:49:22;;;;;;;6.47;4.32;;;;;;;9.34;53.63;92473.09;5002848;28;20031;-74
2021/11/28 02:51:48;;;;;;;7.13;4.32;;;;;;;9.18;54.51;92474.94;5016195;28;20042;-74
2021/11/28 02:54:14;;;;;;;10.40;5.90;;;;;;;9.43;54.36;92472.97;5008867;28;20037;-74
2021/11/28 02:56:43;;;;;;;8.25;4.38;;;;;;;9.19;54.55;92476.50;5008205;28;20465;-74
2021/11/28 02:59:08;;;;;;;7.78;4.65;;;;;;;9.59;53.66;92484.41;5008810;28;20031;-74
2021/11/28 03:01:34;;;;;;;6.60;4.38;;;;;;;9.55;53.41;92472.16;5004691;28;20041;-74
2021/11/28 03:03:59;;;;;;;6.07;3.60;;;;;;;9.63;52.88;92469.38;5007498;28;20050;-74
2021/11/28 03:06:25;;;;;;;8.23;4.82;;;;;;;9.88;52.66;92486.69;5006664;28;20053;-75
2021/11/28 03:08:52;;;;;;;5.50;4.13;;;;;;;9.66;52.55;92433.41;5006136;28;20073;-74
2021/11/28 03:11:18;;;;;;;5.38;3.95;;;;;;;9.98;52.29;92480.13;5006387;28;20151;-74
2021/11/28 03:13:47;;;;;;;6.93;3.70;;;;;;;10.10;52.52;92474.75;5006930;28;20045;-74
2021/11/28 03:16:20;;;;;;;5.60;3.97;;;;;;;9.97;52.53;92460.00;5004353;28;20030;-74
2021/11/28 03:18:47;;;;;;;8.65;4.70;;;;;;;10.14;52.01;92466.84;5006401;28;20895;-75
2021/11/28 03:21:18;;;;;;;8.63;4.13;;;;;;;10.22;51.46;92442.03;5008991;28;20034;-75
2021/11/28 03:23:46;;;;;;;5.82;4.05;;;;;;;10.27;51.50;92439.84;5006154;28;20133;-74
2021/11/28 03:26:35;;;;;;;9.57;4.30;;;;;;;10.39;50.98;92448.88;5008218;28;20038;-74
2021/11/28 03:29:08;;;;;;;9.20;4.15;;;;;;;10.21;51.26;92430.63;5000082;28;20046;-74
2021/11/28 03:31:37;;;;;;;5.65;3.25;;;;;;;9.95;52.00;92425.03;5006966;28;20038;-74
2021/11/28 03:34:06;;;;;;;8.65;4.40;;;;;;;9.79;52.08;92418.94;5001357;28;20310;-74
2021/11/28 03:36:33;;;;;;;8.73;3.47;;;;;;;9.90;52.04;92430.59;5005899;28;20051;-74
2021/11/28 03:39:00;;;;;;;4.95;3.35;;;;;;;9.93;52.24;92442.44;5005256;28;20951;-74
2021/11/28 03:41:28;;;;;;;8.93;3.20;;;;;;;9.75;51.99;92416.19;5023766;28;20026;-74
2021/11/28 03:43:56;;;;;;;5.07;2.95;;;;;;;9.41;53.68;92446.78;5006302;28;20042;-74
2021/11/28 03:46:22;;;;;;;4.65;3.22;;;;;;;9.21;54.47;92442.44;4997801;28;20034;-74
2021/11/28 03:48:48;;;;;;;4.30;2.65;;;;;;;9.12;54.39;92447.09;5003226;28;20053;-74
2021/11/28 03:51:13;;;;;;;7.00;3.63;;;;;;;8.95;55.01;92466.66;5002043;28;20046;-74
2021/11/28 03:53:39;;;;;;;5.97;3.70;;;;;;;8.88;54.89;92481.59;5003284;28;20022;-74
2021/11/28 03:56:07;;;;;;;8.98;3.88;;;;;;;8.96;54.70;92480.69;5000049;28;20054;-74
2021/11/28 03:58:34;;;;;;;4.97;4.25;;;;;;;9.01;54.66;92475.16;5003183;28;20061;-74
2021/11/28 04:01:01;;;;;;;6.88;3.75;;;;;;;9.12;54.41;92518.72;5005838;28;20058;-74
2021/11/28 04:03:27;;;;;;;10.43;4.93;;;;;;;8.91;54.87;92523.34;5007116;28;20134;-75
2021/11/28 04:05:53;;;;;;;7.97;4.82;;;;;;;8.91;55.14;92533.94;5002006;28;20049;-75
2021/11/28 04:08:20;;;;;;;8.13;4.90;;;;;;;8.92;54.82;92525.66;5005647;28;20029;-75
2021/11/28 04:10:46;;;;;;;7.32;4.35;;;;;;;9.03;53.73;92541.91;5003689;28;20045;-74
2021/11/28 04:13:11;;;;;;;9.85;5.72;;;;;;;9.18;54.11;92569.66;5006014;28;20042;-75
2021/11/28 04:15:37;;;;;;;10.13;5.03;;;;;;;9.34;54.01;92591.75;5022715;28;20035;-75
2021/11/28 04:18:02;;;;;;;10.25;5.43;;;;;;;9.40;53.29;92577.91;5005458;28;20022;-75
2021/11/28 04:20:28;;;;;;;7.70;4.45;;;;;;;9.42;53.21;92593.50;5008019;28;20027;-75
2021/11/28 04:22:53;;;;;;;13.82;7.47;;;;;;;9.64;53.09;92600.19;5003758;28;20030;-74
2021/11/28 04:25:19;;;;;;;8.07;5.93;;;;;;;9.60;52.43;92591.34;5006372;28;20691;-75
2021/11/28 04:27:44;;;;;;;9.18;5.20;;;;;;;9.28;53.13;92575.28;5006054;28;20069;-74
2021/11/28 04:30:13;;;;;;;8.63;4.53;;;;;;;9.33;53.24;92587.53;5006728;28;20061;-74
2021/11/28 04:32:38;;;;;;;7.78;4.90;;;;;;;9.52;52.52;92584.28;5005583;28;20038;-75
2021/11/28 04:35:05;;;;;;;8.57;5.13;;;;;;;9.06;54.21;92594.25;5004503;28;20039;-75
2021/11/28 04:37:30;;;;;;;8.82;5.20;;;;;;;9.31;53.31;92584.44;5013574;28;20045;-75
2021/11/28 04:39:56;;;;;;;13.52;4.93;;;;;;;9.35;53.05;92558.78;5003693;28;20117;-75
2021/11/28 04:42:22;;;;;;;10.63;4.85;;;;;;;9.35;52.10;92542.84;5003944;28;20044;-74
2021/11/28 04:44:48;;;;;;;8.10;4.97;;;;;;;9.51;52.44;92549.03;5005034;28;20040;-74
2021/11/28 04:47:18;;;;;;;7.25;4.80;;;;;;;9.66;51.86;92572.19;5003659;28;20125;-74
2021/11/28 04:49:43;;;;;;;5.53;3.45;;;;;;;9.31;52.68;92590.53;4998783;28;20048;-74
2021/11/28 04:52:09;;;;;;;8.07;4.00;;;;;;;8.36;56.08;92576.88;5018699;28;20097;-75
2021/11/28 04:54:35;;;;;;;7.32;3.80;;;;;;;8.84;54.48;92565.56;5001273;28;20038;-74
2021/11/28 04:57:00;;;;;;;7.22;5.05;;;;;;;8.75;53.76;92525.13;5005368;28;20034;-74
2021/11/28 04:59:25;;;;;;;8.07;4.53;;;;;;;9.07;53.78;92590.50;5002051;28;20093;-75
2021/11/28 05:01:51;;;;;;;9.80;4.20;;;;;;;9.08;53.96;92586.75;5002239;28;20034;-74
2021/11/28 05:04:16;;;;;;;9.52;5.30;;;;;;;7.87;57.10;92583.91;5006068;28;20034;-75
2021/11/28 05:06:42;;;;;;;9.02;5.32;;;;;;;8.17;57.08;92593.25;5004803;28;20050;-76
2021/11/28 05:09:08;;;;;;;8.73;5.35;;;;;;;8.68;55.28;92580.56;5003806;28;20021;-74
2021/11/28 05:11:34;;;;;;;9.45;4.80;;;;;;;8.98;54.17;92579.25;5005878;28;20025;-74
2021/11/28 05:13:59;;;;;;;11.32;6.10;;;;;;;8.52;55.40;92578.56;5005149;28;20770;-75
2021/11/28 05:16:25;;;;;;;8.50;5.07;;;;;;;8.79;54.75;92600.25;4999654;28;20047;-75
2021/11/28 05:18:51;;;;;;;5.78;3.63;;;;;;;8.46;55.97;92619.59;5002357;28;20061;-74
2021/11/28 05:21:16;;;;;;;5.40;3.70;;;;;;;8.46;56.06;92593.13;5002758;28;20068;-75
2021/11/28 05:23:42;;;;;;;5.90;3.35;;;;;;;8.29;55.39;92537.69;5004408;28;20032;-75
2021/11/28 05:26:07;;;;;;;5.30;3.55;;;;;;;7.66;58.50;92600.56;5003898;28;20712;-74
2021/11/28 05:28:32;;;;;;;5.53;4.47;;;;;;;8.23;56.83;92594.63;5004118;28;20050;-75
2021/11/28 05:30:58;;;;;;;5.80;3.85;;;;;;;8.71;55.66;92624.94;5005614;28;20108;-75
2021/11/28 05:33:23;;;;;;;5.72;3.67;;;;;;;8.83;54.65;92601.13;5005078;28;20160;-75
2021/11/28 05:35:49;;;;;;;4.93;3.45;;;;;;;8.94;54.24;92610.97;5003362;28;20076;-75
2021/11/28 05:38:14;;;;;;;8.00;4.03;;;;;;;9.15;53.95;92624.13;5003199;28;20085;-75
2021/11/28 05:40:40;;;;;;;9.90;4.88;;;;;;;9.30;53.27;92615.50;5001888;28;20038;-75
2021/11/28 05:43:05;;;;;;;9.40;4.00;;;;;;;9.35;52.74;92575.47;5000587;28;20129;-74
2021/11/28 05:45:31;;;;;;;7.88;4.88;;;;;;;9.32;52.34;92564.75;5004900;28;20088;-74
2021/11/28 05:47:56;;;;;;;9.07;4.07;;;;;;;8.61;54.26;92577.69;5001371;28;20121;-75
2021/11/28 05:50:26;;;;;;;8.88;5.05;;;;;;;7.90;55.94;92528.44;5002979;28;20082;-75
2021/11/28 05:52:53;;;;;;;8.55;5.40;;;;;;;7.72;57.78;92561.44;5002588;28;20089;-75
2021/11/28 05:55:19;;;;;;;10.55;6.55;;;;;;;8.17;57.47;92580.03;5003637;28;20042;-75
2021/11/28 05:57:46;;;;;;;11.43;5.90;;;;;;;8.52;56.27;92577.78;5018996;28;20026;-74
2021/11/28 06:00:14;;;;;;;12.25;6.80;;;;;;;8.71;55.23;92566.63;5002741;28;20046;-74
2021/11/28 06:02:40;;;;;;;8.85;5.90;;;;;;;8.80;54.90;92580.59;5003918;28;20052;-74
2021/11/28 06:05:07;;;;;;;8.85;4.95;;;;;;;8.77;55.24;92584.66;5004917;28;20520;-74
2021/11/28 06:07:32;;;;;;;9.13;4.00;;;;;;;8.55;55.54;92567.31;4998519;28;20045;-74
2021/11/28 06:09:58;;;;;;;4.78;3.75;;;;;;;8.56;55.85;92584.75;4999674;28;20109;-74
2021/11/28 06:12:23;;;;;;;15.05;7.18;;;;;;;8.33;56.95;92588.91;4999622;28;20100;-74
2021/11/28 06:14:49;;;;;;;13.63;6.38;;;;;;;8.69;55.69;92596.16;4998652;28;20030;-74
2021/11/28 06:17:14;;;;;;;11.52;5.38;;;;;;;8.97;55.17;92638.69;4996618;28;20638;-74
2021/11/28 06:19:40;;;;;;;12.43;4.28;;;;;;;8.83;55.52;92593.94;5004064;28;20029;-74
2021/11/28 06:22:08;;;;;;;31.58;14.48;;;;;;;7.21;60.75;92583.75;4997145;28;20049;-73
2021/11/28 06:24:33;;;;;;;11.73;6.32;;;;;;;7.92;59.17;92612.84;4997368;28;20157;-74
2021/11/28 06:26:59;;;;;;;10.18;3.92;;;;;;;7.71;59.43;92584.50;4997805;28;20113;-74
2021/11/28 06:29:24;;;;;;;7.85;3.92;;;;;;;8.05;59.41;92615.19;4996721;28;20027;-73
2021/11/28 06:31:50;;;;;;;9.18;4.28;;;;;;;8.44;58.73;92621.81;4995805;28;20561;-74
2021/11/28 06:34:16;;;;;;;4.80;3.22;;;;;;;8.71;56.99;92617.78;4998987;28;20042;-74
2021/11/28 06:36:41;;;;;;;6.18;4.18;;;;;;;8.07;57.69;92606.94;4994381;28;20528;-74
2021/11/28 06:39:07;;;;;;;5.45;4.00;;;;;;;7.48;61.48;92649.41;4995867;28;20595;-74
2021/11/28 06:41:32;;;;;;;7.43;4.55;;;;;;;8.33;58.79;92673.66;4995083;28;20034;-73
2021/11/28 06:43:58;;;;;;;8.32;4.35;;;;;;;8.67;57.84;92661.94;4996094;28;20050;-74
2021/11/28 06:46:24;;;;;;;8.85;3.85;;;;;;;8.95;56.28;92662.13;4995712;28;20038;-74
2021/11/28 06:48:49;;;;;;;5.13;3.63;;;;;;;9.24;55.50;92674.44;4998735;28;20117;-74
2021/11/28 06:51:15;;;;;;;10.30;4.97;;;;;;;8.79;56.13;92634.69;5000221;28;20820;-74
2021/11/28 06:53:41;;;;;;;7.97;5.18;;;;;;;8.95;56.30;92649.63;5015196;28;20670;-74
2021/11/28 06:56:06;;;;;;;7.30;4.13;;;;;;;9.17;55.93;92643.16;4992498;28;20082;-74
2021/11/28 06:58:33;;;;;;;4.43;3.25;;;;;;;9.41;55.17;92653.75;5001313;28;20097;-75
2021/11/28 07:00:58;;;;;;;7.82;4.25;;;;;;;9.51;54.61;92619.91;4998271;28;20049;-74
2021/11/28 07:03:24;;;;;;;6.38;3.88;;;;;;;9.05;54.68;92608.63;4994293;28;20544;-74
2021/11/28 07:05:49;;;;;;;7.18;4.00;;;;;;;9.37;55.23;92630.88;4995440;28;20052;-74
2021/11/28 07:08:15;;;;;;;7.47;5.03;;;;;;;9.75;54.15;92612.66;4990437;28;21183;-73
2021/11/28 07:10:40;;;;;;;7.53;4.63;;;;;;;9.96;53.24;92639.06;4998266;28;20050;-74
2021/11/28 07:13:09;;;;;;;8.50;4.30;;;;;;;10.16;53.03;92651.38;4998139;28;20051;-75
2021/11/28 07:15:36;;;;;;;7.30;4.32;;;;;;;10.30;52.68;92673.03;4999351;28;20093;-74
2021/11/28 07:18:02;;;;;;;6.07;3.83;;;;;;;10.31;51.89;92653.31;5000976;28;20025;-74
2021/11/28 07:20:28;;;;;;;8.68;4.20;;;;;;;8.91;55.15;92640.00;4992980;28;20038;-74
2021/11/28 07:22:53;;;;;;;6.53;4.55;;;;;;;9.72;54.03;92653.16;5005569;28;20061;-74
2021/11/28 07:25:19;;;;;;;7.18;4.50;;;;;;;10.21;52.67;92661.78;5001147;28;20463;-74
2021/11/28 07:27:44;;;;;;;10.13;5.22;;;;;;;10.28;52.33;92638.03;5001309;28;20035;-74
2021/11/28 07:30:10;;;;;;;6.70;4.32;;;;;;;10.51;52.24;92629.56;5000836;28;20139;-74
2021/11/28 07:32:36;;;;;;;6.10;3.92;;;;;;;10.19;52.70;92624.13;5006206;28;20039;-74
2021/11/28 07:35:03;;;;;;;7.65;3.40;;;;;;;10.52;52.20;92609.81;4994065;28;20071;-74
2021/11/28 07:37:29;;;;;;;6.30;3.08;;;;;;;9.70;52.98;92554.50;5002488;28;20118;-74
2021/11/28 07:39:55;;;;;;;5.45;3.30;;;;;;;9.89;54.08;92586.50;5003560;28;20342;-75
2021/11/28 07:42:20;;;;;;;7.70;3.45;;;;;;;9.58;54.10;92589.03;5006447;28;20507;-75
2021/11/28 07:44:46;;;;;;;4.93;3.30;;;;;;;9.74;54.79;92624.38;5006051;28;20389;-74
2021/11/28 07:47:11;;;;;;;6.97;3.60;;;;;;;10.03;54.17;92610.00;5007353;28;20034;-75
2021/11/28 07:49:37;;;;;;;7.50;3.40;;;;;;;9.95;53.85;92597.66;5002133;28;20045;-74
2021/11/28 07:52:02;;;;;;;6.43;4.07;;;;;;;8.59;58.32;92594.69;5007023;28;20056;-74
2021/11/28 07:54:28;;;;;;;6.18;3.13;;;;;;;9.20;57.99;92589.41;5005676;28;20106;-74
2021/11/28 07:56:53;;;;;;;6.45;3.75;;;;;;;9.05;58.03;92603.31;4998971;28;20493;-75
2021/11/28 07:59:19;;;;;;;4.90;3.17;;;;;;;8.31;60.95;92575.22;5005585;28;20018;-74
2021/11/28 08:01:44;;;;;;;5.18;2.72;;;;;;;8.41;60.99;92584.63;4997159;28;20111;-74
2021/11/28 08:04:09;;;;;;;3.78;2.03;;;;;;;8.00;62.05;92582.84;4998483;28;20117;-74
2021/11/28 08:06:35;;;;;;;3.80;2.65;;;;;;;8.28;60.97;92605.00;4999798;28;20034;-75
2021/11/28 08:09:01;;;;;;;7.72;2.67;;;;;;;7.92;63.06;92594.31;5001304;28;20176;-74
2021/11/28 08:11:26;;;;;;;3.28;2.42;;;;;;;7.79;64.08;92587.41;4995887;28;20038;-75
2021/11/28 08:13:53;;;;;;;5.90;3.08;;;;;;;7.60;64.34;92548.94;5002440;28;20052;-74
2021/11/28 08:16:18;;;;;;;5.20;3.05;;;;;;;7.93;63.60;92609.06;5004571;28;20046;-74
2021/11/28 08:18:44;;;;;;;5.00;2.67;;;;;;;8.28;61.99;92581.16;4990285;28;20053;-75
2021/11/28 08:21:10;;;;;;;5.13;2.35;;;;;;;8.29;60.72;92547.50;4982249;28;20022;-74
2021/11/28 08:23:35;;;;;;;2.53;1.60;;;;;;;8.36;58.42;92567.06;4992552;28;20037;-75
2021/11/28 08:26:01;;;;;;;4.15;2.10;;;;;;;8.65;59.30;92599.78;4996003;28;20088;-74
2021/11/28 08:28:26;;;;;;;4.63;2.00;;;;;;;8.90;57.34;92570.28;4998469;28;20536;-76
2021/11/28 08:30:52;;;;;;;3.95;1.98;;;;;;;9.16;57.62;92596.50;5004495;28;20481;-75
2021/11/28 08:33:17;;;;;;;4.70;2.33;;;;;;;9.38;57.98;92585.44;5001961;28;20038;-74
2021/11/28 08:35:43;;;;;;;2.70;2.03;;;;;;;9.80;56.27;92595.72;5001606;28;20059;-75
2021/11/28 08:38:10;;;;;;;2.95;2.10;;;;;;;9.81;57.06;92602.56;5001102;28;20760;-75
2021/11/28 08:40:37;;;;;;;10.02;3.13;;;;;;;9.45;56.70;92596.25;4995118;28;20034;-75
2021/11/28 08:43:07;;;;;;;5.90;3.67;;;;;;;9.54;56.76;92597.97;4998586;28;20038;-74
2021/11/28 08:45:33;;;;;;;4.18;3.00;;;;;;;9.81;56.46;92623.81;4997844;28;20056;-75
2021/11/28 08:47:59;;;;;;;4.47;2.75;;;;;;;9.06;57.59;92599.56;4999441;28;20037;-74
2021/11/28 08:50:24;;;;;;;17.15;3.45;;;;;;;8.88;58.32;92608.84;5004468;28;20021;-75
2021/11/28 08:52:50;;;;;;;3.60;2.53;;;;;;;8.80;59.50;92615.03;5005439;28;20044;-76
2021/11/28 08:55:17;;;;;;;3.90;2.63;;;;;;;8.66;59.45;92604.00;5000142;28;20584;-75
2021/11/28 08:57:43;;;;;;;4.63;3.08;;;;;;;8.38;59.83;92570.16;4997351;28;20042;-74
2021/11/28 09:00:10;;;;;;;7.32;3.30;;;;;;;9.29;58.94;92629.88;4999449;28;20113;-75
2021/11/28 09:02:36;;;;;;;4.38;2.97;;;;;;;9.00;58.39;92640.66;5000781;28;20044;-74
2021/11/28 09:05:02;;;;;;;4.22;2.85;;;;;;;8.68;58.68;92586.66;4996609;28;20065;-73
2021/11/28 09:07:27;;;;;;;4.35;2.53;;;;;;;9.26;57.88;92627.13;4989569;28;20418;-74
2021/11/28 09:09:53;;;;;;;4.40;2.65;;;;;;;8.91;58.73;92632.81;4994376;28;20038;-73
2021/11/28 09:12:18;;;;;;;7.82;3.25;;;;;;;8.70;58.28;92615.47;4992920;28;20046;-74
2021/11/28 09:14:44;;;;;;;6.03;2.20;;;;;;;9.21;58.05;92641.38;4996211;28;20030;-74
2021/11/28 09:17:09;;;;;;;7.43;2.60;;;;;;;9.59;56.89;92666.75;4997560;28;20034;-74
2021/11/28 09:20:19;;;;;;;3.58;2.55;;;;;;;9.83;55.14;92632.19;5000367;28;20054;-74
2021/11/28 09:25:12;;;;;;;5.63;2.60;;;;;;;9.99;55.01;92600.41;4987654;28;20034;-74
2021/11/28 09:27:41;;;;;;;3.97;1.70;;;;;;;9.55;52.77;92594.22;5003272;28;20189;-74
2021/11/28 09:30:07;;;;;;;1.25;1.15;;;;;;;9.59;52.49;92597.75;4995621;28;20053;-74
2021/11/28 09:32:32;;;;;;;5.18;2.78;;;;;;;9.24;56.28;92584.25;5002533;28;20048;-76
2021/11/28 09:34:58;;;;;;;3.85;2.88;;;;;;;9.46;56.65;92578.44;5002960;28;20436;-75
2021/11/28 09:37:23;;;;;;;4.43;2.90;;;;;;;9.95;56.01;92589.69;4995038;28;20451;-76
2021/11/28 09:39:48;;;;;;;4.93;2.78;;;;;;;9.93;55.46;92604.44;5014957;28;20049;-75
2021/11/28 09:42:22;;;;;;;3.70;2.08;;;;;;;9.89;52.34;92588.38;5003056;28;20046;-74
2021/11/28 09:44:48;;;;;;;2.22;1.52;;;;;;;10.12;51.49;92592.03;4996139;28;20526;-75
2021/11/28 09:47:14;;;;;;;3.47;2.38;;;;;;;10.16;52.03;92571.69;5002407;28;20039;-74
2021/11/28 09:49:44;;;;;;;5.80;2.05;;;;;;;10.48;52.41;92593.00;5000399;28;20064;-74
2021/11/28 09:52:15;;;;;;;4.15;2.42;;;;;;;10.21;53.54;92579.41;5000214;28;20125;-74
2021/11/28 09:54:44;;;;;;;6.90;3.15;;;;;;;10.25;53.39;92563.53;5001460;28;20030;-74
2021/11/28 09:57:14;;;;;;;6.20;3.20;;;;;;;10.29;52.64;92575.81;5001783;28;20883;-74
2021/11/28 09:59:42;;;;;;;2.33;1.42;;;;;;;9.89;50.38;92527.31;5002332;28;20042;-74
2021/11/28 10:02:13;;;;;;;5.00;2.25;;;;;;;10.55;50.96;92556.75;4998467;28;20655;-74
2021/11/28 10:04:39;;;;;;;10.43;4.47;;;;;;;11.02;50.28;92564.72;4994548;28;20154;-74
2021/11/28 10:07:05;;;;;;;4.43;2.92;;;;;;;10.91;49.93;92563.69;4998770;28;20081;-74
2021/11/28 10:09:30;;;;;;;5.05;3.28;;;;;;;11.18;50.40;92554.81;5003514;28;20050;-74
2021/11/28 10:11:59;;;;;;;7.47;3.22;;;;;;;11.02;50.54;92543.44;4992801;28;20516;-74
2021/11/28 10:14:24;;;;;;;3.38;2.22;;;;;;;10.66;50.36;92509.16;5000172;28;20025;-75
2021/11/28 10:16:50;;;;;;;2.92;1.80;;;;;;;10.72;50.65;92531.69;5013449;28;20034;-75
2021/11/28 10:19:16;;;;;;;2.60;2.38;;;;;;;10.55;51.51;92486.88;4999494;28;20042;-74
2021/11/28 10:21:41;;;;;;;8.15;4.22;;;;;;;11.33;50.67;92513.31;5010120;28;20058;-74
2021/11/28 10:24:11;;;;;;;4.65;2.20;;;;;;;11.30;49.48;92515.88;5000120;28;20076;-74
2021/11/28 10:26:57;;;;;;;3.55;1.30;;;;;;;11.00;47.20;92511.06;5001005;28;20105;-74
2021/11/28 10:29:28;;;;;;;2.60;2.08;;;;;;;10.76;48.00;92500.63;5000415;28;20057;-74
2021/11/28 10:31:57;;;;;;;5.85;1.95;;;;;;;10.88;48.87;92505.09;4998530;28;20108;-74
2021/11/28 10:34:23;;;;;;;6.45;4.22;;;;;;;11.30;47.45;92478.63;5000888;28;20042;-74
2021/11/28 10:36:52;;;;;;;3.55;1.85;;;;;;;10.98;47.50;92489.38;5002388;28;20084;-74
2021/11/28 10:39:21;;;;;;;4.15;1.95;;;;;;;11.08;47.21;92477.41;4988961;28;20042;-74
2021/11/28 10:41:53;;;;;;;2.88;1.92;;;;;;;11.50;45.91;92498.81;4987194;28;20019;-73
2021/11/28 10:44:21;;;;;;;8.60;3.40;;;;;;;10.93;48.98;92481.66;5003147;28;20121;-74
2021/11/28 10:46:48;;;;;;;6.43;2.88;;;;;;;10.56;50.90;92491.81;4995528;28;20038;-74
2021/11/28 10:49:18;;;;;;;2.92;2.40;;;;;;;10.08;52.07;92489.47;4995143;28;20030;-74
2021/11/28 10:51:52;;;;;;;5.03;3.20;;;;;;;10.32;51.89;92500.72;4992334;28;20046;-74
2021/11/28 10:54:26;;;;;;;7.95;3.97;;;;;;;10.27;51.88;92519.56;4993501;28;20164;-74
2021/11/28 10:57:07;;;;;;;9.45;4.95;;;;;;;10.41;51.74;92521.09;4991674;28;20286;-75
2021/11/28 10:59:37;;;;;;;6.22;3.47;;;;;;;10.37;52.39;92536.16;5003029;28;20053;-75
2021/11/28 11:02:22;;;;;;;9.13;3.88;;;;;;;10.07;51.77;92478.09;4995662;28;20030;-75
2021/11/28 11:04:48;;;;;;;7.47;3.65;;;;;;;10.82;51.12;92511.78;4990385;28;20080;-75
2021/11/28 11:07:14;;;;;;;4.75;3.42;;;;;;;11.10;51.55;92531.81;4993263;28;20069;-75
2021/11/28 11:09:45;;;;;;;5.03;2.63;;;;;;;11.59;50.21;92540.13;4989960;28;20536;-74
2021/11/28 11:12:24;;;;;;;6.35;2.70;;;;;;;11.57;49.75;92523.75;4989154;28;20030;-74
2021/11/28 11:14:52;;;;;;;4.55;2.90;;;;;;;11.15;49.88;92526.22;5008884;28;20037;-74
2021/11/28 11:17:18;;;;;;;5.07;3.10;;;;;;;11.29;50.69;92536.44;4995777;28;20144;-74
2021/11/28 11:19:49;;;;;;;3.25;2.00;;;;;;;11.44;49.77;92524.94;5009883;28;20603;-74
2021/11/28 11:22:25;;;;;;;3.42;2.28;;;;;;;11.94;47.14;92548.06;4986913;28;20133;-74
2021/11/28 11:24:56;;;;;;;2.47;1.60;;;;;;;10.95;47.75;92547.81;4989147;28;20046;-74
2021/11/28 11:27:27;;;;;;;3.40;1.73;;;;;;;10.72;47.52;92510.44;5008242;28;20038;-74
2021/11/28 11:29:55;;;;;;;2.92;1.10;;;;;;;10.61;47.08;92464.22;4989675;28;20863;-74
2021/11/28 11:32:43;;;;;;;4.00;1.80;;;;;;;10.83;47.33;92535.38;4987487;28;20053;-73
2021/11/28 11:35:13;;;;;;;35.33;1.98;;;;;;;10.82;45.97;92501.16;4988552;28;20765;-74
2021/11/28 11:37:39;;;;;;;2.97;2.03;;;;;;;10.61;48.12;92480.19;5001969;28;20077;-74
2021/11/28 11:40:10;;;;;;;1.52;1.10;;;;;;;10.72;46.73;92502.44;4993479;28;20038;-74
2021/11/28 11:42:38;;;;;;;3.08;1.30;;;;;;;11.10;46.06;92496.47;4995667;28;20046;-74
2021/11/28 11:45:07;;;;;;;3.83;1.40;;;;;;;11.42;45.95;92476.63;4993709;28;20049;-74